sensor_id;sensor_type;location;lat;lon;timestamp;P1;durP1;ratioP1;P2;durP2;ratioP2
37851;SDS011;23691;52.486;4.650;2023-03-14T00:01:56;33.75;;;5.97;;
37851;SDS011;23691;52.486;4.650;2023-03-14T00:04:21;31.98;;;5.20;;
37851;SDS011;23691;52.486;4.650;2023-03-14T00:06:47;37.55;;;4.95;;
37851;SDS011;23691;52.486;4.650;2023-03-14T00:09:14;33.80;;;5.43;;
37851;SDS011;23691;52.486;4.650;2023-03-14T00:11:40;35.50;;;5.35;;
37851;SDS011;23691;52.486;4.650;2023-03-14T00:14:05;35.72;;;5.43;;
37851;SDS011;23691;52.486;4.650;2023-03-14T00:16:31;35.10;;;5.15;;
37851;SDS011;23691;52.486;4.650;2023-03-14T00:18:58;34.42;;;5.53;;
37851;SDS011;23691;52.486;4.650;2023-03-14T00:21:26;39.47;;;4.57;;
37851;SDS011;23691;52.486;4.650;2023-03-14T00:23:52;32.63;;;5.47;;
37851;SDS011;23691;52.486;4.650;2023-03-14T00:26:18;41.47;;;5.30;;
37851;SDS011;23691;52.486;4.650;2023-03-14T00:28:46;33.53;;;5.55;;
37851;SDS011;23691;52.486;4.650;2023-03-14T00:31:13;30.27;;;4.75;;
37851;SDS011;23691;52.486;4.650;2023-03-14T00:33:40;32.80;;;5.45;;
37851;SDS011;23691;52.486;4.650;2023-03-14T00:36:08;32.03;;;4.53;;
37851;SDS011;23691;52.486;4.650;2023-03-14T00:38:49;33.33;;;4.78;;
37851;SDS011;23691;52.486;4.650;2023-03-14T00:41:22;37.15;;;4.97;;
37851;SDS011;23691;52.486;4.650;2023-03-14T00:43:49;31.05;;;4.53;;
37851;SDS011;23691;52.486;4.650;2023-03-14T00:46:14;29.65;;;4.20;;
37851;SDS011;23691;52.486;4.650;2023-03-14T00:48:40;31.48;;;5.10;;
37851;SDS011;23691;52.486;4.650;2023-03-14T00:51:06;31.48;;;4.10;;
37851;SDS011;23691;52.486;4.650;2023-03-14T00:53:37;33.60;;;4.20;;
37851;SDS011;23691;52.486;4.650;2023-03-14T00:56:04;26.27;;;4.07;;
37851;SDS011;23691;52.486;4.650;2023-03-14T00:58:31;31.20;;;4.53;;
37851;SDS011;23691;52.486;4.650;2023-03-14T01:00:56;35.22;;;5.13;;
37851;SDS011;23691;52.486;4.650;2023-03-14T01:03:22;30.90;;;4.85;;
37851;SDS011;23691;52.486;4.650;2023-03-14T01:05:49;36.40;;;4.65;;
37851;SDS011;23691;52.486;4.650;2023-03-14T01:08:14;36.28;;;5.20;;
37851;SDS011;23691;52.486;4.650;2023-03-14T01:10:40;38.42;;;5.57;;
37851;SDS011;23691;52.486;4.650;2023-03-14T01:13:06;36.85;;;5.20;;
37851;SDS011;23691;52.486;4.650;2023-03-14T01:15:33;33.70;;;4.95;;
37851;SDS011;23691;52.486;4.650;2023-03-14T01:17:59;31.98;;;5.28;;
37851;SDS011;23691;52.486;4.650;2023-03-14T01:20:24;37.67;;;5.20;;
37851;SDS011;23691;52.486;4.650;2023-03-14T01:22:50;38.08;;;6.20;;
37851;SDS011;23691;52.486;4.650;2023-03-14T01:25:16;37.15;;;5.60;;
37851;SDS011;23691;52.486;4.650;2023-03-14T01:27:42;40.33;;;5.40;;
37851;SDS011;23691;52.486;4.650;2023-03-14T01:30:09;36.75;;;5.43;;
37851;SDS011;23691;52.486;4.650;2023-03-14T01:32:35;40.35;;;6.50;;
37851;SDS011;23691;52.486;4.650;2023-03-14T01:35:02;36.38;;;5.85;;
37851;SDS011;23691;52.486;4.650;2023-03-14T01:37:30;39.03;;;5.75;;
37851;SDS011;23691;52.486;4.650;2023-03-14T01:39:58;46.22;;;6.63;;
37851;SDS011;23691;52.486;4.650;2023-03-14T01:42:24;45.80;;;6.50;;
37851;SDS011;23691;52.486;4.650;2023-03-14T01:47:19;46.95;;;6.13;;
37851;SDS011;23691;52.486;4.650;2023-03-14T01:49:45;48.83;;;7.07;;
37851;SDS011;23691;52.486;4.650;2023-03-14T01:52:15;41.80;;;5.75;;
37851;SDS011;23691;52.486;4.650;2023-03-14T01:55:27;49.55;;;6.28;;
37851;SDS011;23691;52.486;4.650;2023-03-14T01:57:50;45.75;;;6.05;;
37851;SDS011;23691;52.486;4.650;2023-03-14T02:00:31;43.63;;;6.03;;
37851;SDS011;23691;52.486;4.650;2023-03-14T02:05:32;47.72;;;7.13;;
37851;SDS011;23691;52.486;4.650;2023-03-14T02:08:03;45.45;;;6.05;;
37851;SDS011;23691;52.486;4.650;2023-03-14T02:10:33;49.72;;;6.60;;
37851;SDS011;23691;52.486;4.650;2023-03-14T02:13:04;57.53;;;6.45;;
37851;SDS011;23691;52.486;4.650;2023-03-14T02:15:30;46.75;;;7.03;;
37851;SDS011;23691;52.486;4.650;2023-03-14T02:17:56;51.95;;;6.82;;
37851;SDS011;23691;52.486;4.650;2023-03-14T02:20:34;41.60;;;6.63;;
37851;SDS011;23691;52.486;4.650;2023-03-14T02:23:01;50.25;;;6.90;;
37851;SDS011;23691;52.486;4.650;2023-03-14T02:27:58;49.05;;;6.20;;
37851;SDS011;23691;52.486;4.650;2023-03-14T02:30:25;43.40;;;6.15;;
37851;SDS011;23691;52.486;4.650;2023-03-14T02:32:54;45.60;;;6.05;;
37851;SDS011;23691;52.486;4.650;2023-03-14T02:35:26;42.92;;;5.75;;
37851;SDS011;23691;52.486;4.650;2023-03-14T02:38:02;37.55;;;5.65;;
37851;SDS011;23691;52.486;4.650;2023-03-14T02:40:34;40.25;;;5.40;;
37851;SDS011;23691;52.486;4.650;2023-03-14T02:43:02;37.88;;;5.28;;
37851;SDS011;23691;52.486;4.650;2023-03-14T02:47:57;35.88;;;5.53;;
37851;SDS011;23691;52.486;4.650;2023-03-14T02:50:29;37.60;;;5.45;;
37851;SDS011;23691;52.486;4.650;2023-03-14T02:52:58;42.25;;;5.38;;
37851;SDS011;23691;52.486;4.650;2023-03-14T02:55:24;40.95;;;5.32;;
37851;SDS011;23691;52.486;4.650;2023-03-14T02:57:51;36.22;;;5.70;;
37851;SDS011;23691;52.486;4.650;2023-03-14T03:00:17;32.55;;;4.45;;
37851;SDS011;23691;52.486;4.650;2023-03-14T03:02:42;34.70;;;5.30;;
37851;SDS011;23691;52.486;4.650;2023-03-14T03:05:08;35.13;;;4.75;;
37851;SDS011;23691;52.486;4.650;2023-03-14T03:07:33;33.28;;;4.75;;
37851;SDS011;23691;52.486;4.650;2023-03-14T03:09:58;26.90;;;4.35;;
37851;SDS011;23691;52.486;4.650;2023-03-14T03:12:24;38.83;;;4.75;;
37851;SDS011;23691;52.486;4.650;2023-03-14T03:14:49;30.52;;;4.20;;
37851;SDS011;23691;52.486;4.650;2023-03-14T03:17:15;31.35;;;4.35;;
37851;SDS011;23691;52.486;4.650;2023-03-14T03:19:40;34.20;;;4.43;;
37851;SDS011;23691;52.486;4.650;2023-03-14T03:22:06;29.45;;;4.28;;
37851;SDS011;23691;52.486;4.650;2023-03-14T03:24:32;31.02;;;4.53;;
37851;SDS011;23691;52.486;4.650;2023-03-14T03:26:57;30.35;;;4.60;;
37851;SDS011;23691;52.486;4.650;2023-03-14T03:29:23;31.38;;;4.55;;
37851;SDS011;23691;52.486;4.650;2023-03-14T03:31:48;33.30;;;4.32;;
37851;SDS011;23691;52.486;4.650;2023-03-14T03:34:14;31.17;;;4.47;;
37851;SDS011;23691;52.486;4.650;2023-03-14T03:36:40;26.20;;;4.72;;
37851;SDS011;23691;52.486;4.650;2023-03-14T03:39:05;24.98;;;3.95;;
37851;SDS011;23691;52.486;4.650;2023-03-14T03:41:31;29.42;;;4.07;;
37851;SDS011;23691;52.486;4.650;2023-03-14T03:43:57;31.35;;;4.72;;
37851;SDS011;23691;52.486;4.650;2023-03-14T03:46:22;27.13;;;4.50;;
37851;SDS011;23691;52.486;4.650;2023-03-14T03:48:48;28.08;;;4.55;;
37851;SDS011;23691;52.486;4.650;2023-03-14T03:51:14;29.73;;;4.32;;
37851;SDS011;23691;52.486;4.650;2023-03-14T03:53:41;27.17;;;4.40;;
37851;SDS011;23691;52.486;4.650;2023-03-14T03:56:07;30.25;;;4.95;;
37851;SDS011;23691;52.486;4.650;2023-03-14T03:58:34;34.20;;;4.82;;
37851;SDS011;23691;52.486;4.650;2023-03-14T04:00:59;25.02;;;4.50;;
37851;SDS011;23691;52.486;4.650;2023-03-14T04:03:25;20.70;;;3.90;;
37851;SDS011;23691;52.486;4.650;2023-03-14T04:05:57;28.60;;;4.40;;
37851;SDS011;23691;52.486;4.650;2023-03-14T04:08:27;33.67;;;5.35;;
37851;SDS011;23691;52.486;4.650;2023-03-14T04:10:54;31.63;;;4.85;;
37851;SDS011;23691;52.486;4.650;2023-03-14T04:15:46;30.65;;;5.00;;
37851;SDS011;23691;52.486;4.650;2023-03-14T04:18:12;31.30;;;5.50;;
37851;SDS011;23691;52.486;4.650;2023-03-14T04:20:37;32.22;;;5.65;;
37851;SDS011;23691;52.486;4.650;2023-03-14T04:23:02;32.00;;;5.43;;
37851;SDS011;23691;52.486;4.650;2023-03-14T04:25:28;31.75;;;5.55;;
37851;SDS011;23691;52.486;4.650;2023-03-14T04:27:53;32.03;;;5.82;;
37851;SDS011;23691;52.486;4.650;2023-03-14T04:30:18;33.55;;;5.95;;
37851;SDS011;23691;52.486;4.650;2023-03-14T04:32:44;34.05;;;5.53;;
37851;SDS011;23691;52.486;4.650;2023-03-14T04:35:09;33.78;;;6.97;;
37851;SDS011;23691;52.486;4.650;2023-03-14T04:37:35;30.67;;;5.47;;
37851;SDS011;23691;52.486;4.650;2023-03-14T04:40:00;37.40;;;6.32;;
37851;SDS011;23691;52.486;4.650;2023-03-14T04:42:26;40.85;;;6.53;;
37851;SDS011;23691;52.486;4.650;2023-03-14T04:44:51;33.22;;;5.75;;
37851;SDS011;23691;52.486;4.650;2023-03-14T04:47:17;37.70;;;5.55;;
37851;SDS011;23691;52.486;4.650;2023-03-14T04:49:42;37.28;;;5.85;;
37851;SDS011;23691;52.486;4.650;2023-03-14T04:52:07;33.92;;;5.60;;
37851;SDS011;23691;52.486;4.650;2023-03-14T04:54:33;30.00;;;5.60;;
37851;SDS011;23691;52.486;4.650;2023-03-14T04:56:58;40.53;;;5.60;;
37851;SDS011;23691;52.486;4.650;2023-03-14T04:59:23;33.70;;;5.32;;
37851;SDS011;23691;52.486;4.650;2023-03-14T05:01:49;38.58;;;6.13;;
37851;SDS011;23691;52.486;4.650;2023-03-14T05:04:14;38.15;;;5.72;;
37851;SDS011;23691;52.486;4.650;2023-03-14T05:06:40;41.25;;;5.65;;
37851;SDS011;23691;52.486;4.650;2023-03-14T05:09:07;39.50;;;6.32;;
37851;SDS011;23691;52.486;4.650;2023-03-14T05:11:32;35.08;;;5.80;;
37851;SDS011;23691;52.486;4.650;2023-03-14T05:13:58;41.03;;;6.43;;
37851;SDS011;23691;52.486;4.650;2023-03-14T05:16:23;40.42;;;5.80;;
37851;SDS011;23691;52.486;4.650;2023-03-14T05:18:48;28.48;;;4.05;;
37851;SDS011;23691;52.486;4.650;2023-03-14T05:21:14;26.15;;;4.25;;
37851;SDS011;23691;52.486;4.650;2023-03-14T05:26:07;24.57;;;3.63;;
37851;SDS011;23691;52.486;4.650;2023-03-14T05:28:32;23.70;;;3.40;;
37851;SDS011;23691;52.486;4.650;2023-03-14T05:30:58;27.65;;;5.15;;
37851;SDS011;23691;52.486;4.650;2023-03-14T05:33:23;25.52;;;4.13;;
37851;SDS011;23691;52.486;4.650;2023-03-14T05:35:49;30.77;;;5.50;;
37851;SDS011;23691;52.486;4.650;2023-03-14T05:38:14;24.33;;;3.63;;
37851;SDS011;23691;52.486;4.650;2023-03-14T05:40:40;26.55;;;3.20;;
37851;SDS011;23691;52.486;4.650;2023-03-14T05:43:05;20.45;;;3.40;;
37851;SDS011;23691;52.486;4.650;2023-03-14T05:45:33;25.20;;;3.05;;
37851;SDS011;23691;52.486;4.650;2023-03-14T05:47:59;20.33;;;3.15;;
37851;SDS011;23691;52.486;4.650;2023-03-14T05:50:24;22.00;;;3.53;;
37851;SDS011;23691;52.486;4.650;2023-03-14T05:52:50;25.67;;;3.83;;
37851;SDS011;23691;52.486;4.650;2023-03-14T05:55:15;24.10;;;3.40;;
37851;SDS011;23691;52.486;4.650;2023-03-14T05:57:40;30.63;;;4.97;;
37851;SDS011;23691;52.486;4.650;2023-03-14T06:00:06;29.88;;;3.88;;
37851;SDS011;23691;52.486;4.650;2023-03-14T06:02:32;18.33;;;2.67;;
37851;SDS011;23691;52.486;4.650;2023-03-14T06:04:57;27.55;;;3.70;;
37851;SDS011;23691;52.486;4.650;2023-03-14T06:07:23;22.73;;;2.70;;
37851;SDS011;23691;52.486;4.650;2023-03-14T06:09:48;21.67;;;3.28;;
37851;SDS011;23691;52.486;4.650;2023-03-14T06:12:13;26.00;;;6.97;;
37851;SDS011;23691;52.486;4.650;2023-03-14T06:14:39;18.90;;;3.17;;
37851;SDS011;23691;52.486;4.650;2023-03-14T06:17:04;18.90;;;3.03;;
37851;SDS011;23691;52.486;4.650;2023-03-14T06:19:29;13.90;;;2.47;;
37851;SDS011;23691;52.486;4.650;2023-03-14T06:21:55;20.88;;;2.88;;
37851;SDS011;23691;52.486;4.650;2023-03-14T06:24:20;25.83;;;3.78;;
37851;SDS011;23691;52.486;4.650;2023-03-14T06:26:45;19.52;;;3.55;;
37851;SDS011;23691;52.486;4.650;2023-03-14T06:29:11;20.50;;;3.17;;
37851;SDS011;23691;52.486;4.650;2023-03-14T06:31:36;21.40;;;2.88;;
37851;SDS011;23691;52.486;4.650;2023-03-14T06:34:01;25.67;;;2.65;;
37851;SDS011;23691;52.486;4.650;2023-03-14T06:36:27;26.48;;;2.33;;
37851;SDS011;23691;52.486;4.650;2023-03-14T06:38:52;17.27;;;2.80;;
37851;SDS011;23691;52.486;4.650;2023-03-14T06:41:18;22.30;;;2.42;;
37851;SDS011;23691;52.486;4.650;2023-03-14T06:43:43;18.90;;;2.20;;
37851;SDS011;23691;52.486;4.650;2023-03-14T06:46:09;25.27;;;2.60;;
37851;SDS011;23691;52.486;4.650;2023-03-14T06:48:34;22.80;;;2.45;;
37851;SDS011;23691;52.486;4.650;2023-03-14T06:51:00;18.00;;;3.10;;
37851;SDS011;23691;52.486;4.650;2023-03-14T06:53:25;23.23;;;2.47;;
37851;SDS011;23691;52.486;4.650;2023-03-14T06:55:50;20.73;;;2.45;;
37851;SDS011;23691;52.486;4.650;2023-03-14T06:58:16;20.75;;;2.50;;
37851;SDS011;23691;52.486;4.650;2023-03-14T07:00:42;18.27;;;2.22;;
37851;SDS011;23691;52.486;4.650;2023-03-14T07:05:37;21.77;;;2.85;;
37851;SDS011;23691;52.486;4.650;2023-03-14T07:08:05;22.67;;;2.15;;
37851;SDS011;23691;52.486;4.650;2023-03-14T07:10:31;12.80;;;1.83;;
37851;SDS011;23691;52.486;4.650;2023-03-14T07:12:56;16.40;;;1.90;;
37851;SDS011;23691;52.486;4.650;2023-03-14T07:15:22;16.98;;;2.20;;
37851;SDS011;23691;52.486;4.650;2023-03-14T07:17:47;18.33;;;2.10;;
37851;SDS011;23691;52.486;4.650;2023-03-14T07:20:15;15.43;;;1.70;;
37851;SDS011;23691;52.486;4.650;2023-03-14T07:22:40;14.10;;;1.70;;
37851;SDS011;23691;52.486;4.650;2023-03-14T07:25:06;18.27;;;2.00;;
37851;SDS011;23691;52.486;4.650;2023-03-14T07:27:34;16.45;;;2.00;;
37851;SDS011;23691;52.486;4.650;2023-03-14T07:29:59;12.68;;;1.60;;
37851;SDS011;23691;52.486;4.650;2023-03-14T07:32:24;14.00;;;1.60;;
37851;SDS011;23691;52.486;4.650;2023-03-14T07:34:50;12.63;;;1.50;;
37851;SDS011;23691;52.486;4.650;2023-03-14T07:37:15;13.95;;;1.50;;
37851;SDS011;23691;52.486;4.650;2023-03-14T07:39:41;17.65;;;1.80;;
37851;SDS011;23691;52.486;4.650;2023-03-14T07:42:06;10.85;;;1.30;;
37851;SDS011;23691;52.486;4.650;2023-03-14T07:44:32;9.85;;;1.50;;
37851;SDS011;23691;52.486;4.650;2023-03-14T07:46:58;15.77;;;1.90;;
37851;SDS011;23691;52.486;4.650;2023-03-14T07:49:23;12.30;;;1.63;;
37851;SDS011;23691;52.486;4.650;2023-03-14T07:51:49;13.65;;;1.77;;
37851;SDS011;23691;52.486;4.650;2023-03-14T07:54:14;14.55;;;1.77;;
37851;SDS011;23691;52.486;4.650;2023-03-14T07:56:39;12.10;;;1.85;;
37851;SDS011;23691;52.486;4.650;2023-03-14T07:59:05;18.52;;;2.33;;
37851;SDS011;23691;52.486;4.650;2023-03-14T08:01:31;18.50;;;2.47;;
37851;SDS011;23691;52.486;4.650;2023-03-14T08:03:56;17.45;;;1.98;;
37851;SDS011;23691;52.486;4.650;2023-03-14T08:06:21;16.15;;;2.00;;
37851;SDS011;23691;52.486;4.650;2023-03-14T08:08:47;24.65;;;2.65;;
37851;SDS011;23691;52.486;4.650;2023-03-14T08:11:12;18.73;;;2.58;;
37851;SDS011;23691;52.486;4.650;2023-03-14T08:13:38;17.73;;;2.55;;
37851;SDS011;23691;52.486;4.650;2023-03-14T08:16:04;16.92;;;2.72;;
37851;SDS011;23691;52.486;4.650;2023-03-14T08:18:30;15.45;;;2.70;;
37851;SDS011;23691;52.486;4.650;2023-03-14T08:20:55;27.50;;;3.05;;
37851;SDS011;23691;52.486;4.650;2023-03-14T08:23:21;24.45;;;3.00;;
37851;SDS011;23691;52.486;4.650;2023-03-14T08:25:48;22.83;;;3.00;;
37851;SDS011;23691;52.486;4.650;2023-03-14T08:28:15;20.05;;;3.28;;
37851;SDS011;23691;52.486;4.650;2023-03-14T08:30:40;28.83;;;4.15;;
37851;SDS011;23691;52.486;4.650;2023-03-14T08:33:06;27.45;;;3.25;;
37851;SDS011;23691;52.486;4.650;2023-03-14T08:35:31;26.33;;;3.70;;
37851;SDS011;23691;52.486;4.650;2023-03-14T08:37:56;25.85;;;3.60;;
37851;SDS011;23691;52.486;4.650;2023-03-14T08:40:22;21.98;;;3.40;;
37851;SDS011;23691;52.486;4.650;2023-03-14T08:42:47;22.90;;;3.25;;
37851;SDS011;23691;52.486;4.650;2023-03-14T08:45:14;24.83;;;4.03;;
37851;SDS011;23691;52.486;4.650;2023-03-14T08:47:41;24.67;;;3.15;;
37851;SDS011;23691;52.486;4.650;2023-03-14T08:50:07;17.70;;;2.83;;
37851;SDS011;23691;52.486;4.650;2023-03-14T08:52:34;21.88;;;2.97;;
37851;SDS011;23691;52.486;4.650;2023-03-14T08:54:59;24.15;;;3.17;;
37851;SDS011;23691;52.486;4.650;2023-03-14T08:57:25;24.40;;;3.40;;
37851;SDS011;23691;52.486;4.650;2023-03-14T08:59:54;27.90;;;3.63;;
37851;SDS011;23691;52.486;4.650;2023-03-14T09:02:20;31.17;;;4.57;;
37851;SDS011;23691;52.486;4.650;2023-03-14T09:04:46;29.13;;;3.70;;
37851;SDS011;23691;52.486;4.650;2023-03-14T09:07:12;27.70;;;3.55;;
37851;SDS011;23691;52.486;4.650;2023-03-14T09:09:37;28.52;;;4.20;;
37851;SDS011;23691;52.486;4.650;2023-03-14T09:12:03;27.23;;;3.67;;
37851;SDS011;23691;52.486;4.650;2023-03-14T09:14:29;28.75;;;4.10;;
37851;SDS011;23691;52.486;4.650;2023-03-14T09:16:55;34.30;;;4.53;;
37851;SDS011;23691;52.486;4.650;2023-03-14T09:19:20;30.58;;;4.50;;
37851;SDS011;23691;52.486;4.650;2023-03-14T09:21:46;32.58;;;4.38;;
37851;SDS011;23691;52.486;4.650;2023-03-14T09:24:12;30.25;;;3.85;;
37851;SDS011;23691;52.486;4.650;2023-03-14T09:26:37;28.27;;;3.75;;
37851;SDS011;23691;52.486;4.650;2023-03-14T09:29:02;31.17;;;4.45;;
37851;SDS011;23691;52.486;4.650;2023-03-14T09:31:28;31.38;;;4.57;;
37851;SDS011;23691;52.486;4.650;2023-03-14T09:33:54;32.47;;;4.35;;
37851;SDS011;23691;52.486;4.650;2023-03-14T09:36:20;31.35;;;3.92;;
37851;SDS011;23691;52.486;4.650;2023-03-14T09:38:45;29.10;;;3.60;;
37851;SDS011;23691;52.486;4.650;2023-03-14T09:41:12;29.05;;;3.78;;
37851;SDS011;23691;52.486;4.650;2023-03-14T09:43:41;31.65;;;3.92;;
37851;SDS011;23691;52.486;4.650;2023-03-14T09:46:08;31.93;;;4.93;;
37851;SDS011;23691;52.486;4.650;2023-03-14T09:48:36;31.77;;;4.10;;
37851;SDS011;23691;52.486;4.650;2023-03-14T09:51:03;27.77;;;4.60;;
37851;SDS011;23691;52.486;4.650;2023-03-14T09:53:45;26.75;;;4.00;;
37851;SDS011;23691;52.486;4.650;2023-03-14T09:56:14;28.05;;;3.88;;
37851;SDS011;23691;52.486;4.650;2023-03-14T09:58:44;29.92;;;3.88;;
37851;SDS011;23691;52.486;4.650;2023-03-14T10:01:13;33.40;;;4.43;;
37851;SDS011;23691;52.486;4.650;2023-03-14T10:03:43;38.10;;;5.57;;
37851;SDS011;23691;52.486;4.650;2023-03-14T10:06:13;28.20;;;4.65;;
37851;SDS011;23691;52.486;4.650;2023-03-14T10:08:40;36.15;;;3.92;;
37851;SDS011;23691;52.486;4.650;2023-03-14T10:11:09;31.67;;;3.83;;
37851;SDS011;23691;52.486;4.650;2023-03-14T10:14:14;26.17;;;3.65;;
37851;SDS011;23691;52.486;4.650;2023-03-14T10:16:42;25.02;;;4.10;;
37851;SDS011;23691;52.486;4.650;2023-03-14T10:19:12;24.30;;;3.15;;
37851;SDS011;23691;52.486;4.650;2023-03-14T10:21:42;19.42;;;3.63;;
37851;SDS011;23691;52.486;4.650;2023-03-14T10:24:16;23.35;;;3.30;;
37851;SDS011;23691;52.486;4.650;2023-03-14T10:26:47;17.85;;;2.65;;
37851;SDS011;23691;52.486;4.650;2023-03-14T10:29:33;21.95;;;2.80;;
37851;SDS011;23691;52.486;4.650;2023-03-14T10:34:33;21.73;;;3.80;;
37851;SDS011;23691;52.486;4.650;2023-03-14T10:37:06;20.67;;;3.00;;
37851;SDS011;23691;52.486;4.650;2023-03-14T10:39:46;21.33;;;3.30;;
37851;SDS011;23691;52.486;4.650;2023-03-14T10:42:24;19.60;;;2.88;;
37851;SDS011;23691;52.486;4.650;2023-03-14T10:44:55;19.75;;;2.72;;
37851;SDS011;23691;52.486;4.650;2023-03-14T10:47:23;21.77;;;2.70;;
37851;SDS011;23691;52.486;4.650;2023-03-14T10:49:51;19.40;;;3.17;;
37851;SDS011;23691;52.486;4.650;2023-03-14T10:54:59;19.52;;;2.83;;
37851;SDS011;23691;52.486;4.650;2023-03-14T10:57:27;17.67;;;3.17;;
37851;SDS011;23691;52.486;4.650;2023-03-14T10:59:53;19.67;;;2.60;;
37851;SDS011;23691;52.486;4.650;2023-03-14T11:05:07;25.05;;;3.17;;
37851;SDS011;23691;52.486;4.650;2023-03-14T11:07:40;16.58;;;2.58;;
37851;SDS011;23691;52.486;4.650;2023-03-14T11:16:14;18.20;;;2.58;;
37851;SDS011;23691;52.486;4.650;2023-03-14T11:19:00;14.52;;;2.10;;
37851;SDS011;23691;52.486;4.650;2023-03-14T11:21:45;20.20;;;2.53;;
37851;SDS011;23691;52.486;4.650;2023-03-14T11:27:14;21.15;;;3.05;;
37851;SDS011;23691;52.486;4.650;2023-03-14T11:32:12;16.92;;;2.60;;
37851;SDS011;23691;52.486;4.650;2023-03-14T11:34:54;18.83;;;2.80;;
37851;SDS011;23691;52.486;4.650;2023-03-14T11:37:28;17.88;;;2.60;;
37851;SDS011;23691;52.486;4.650;2023-03-14T11:43:15;17.85;;;2.25;;
37851;SDS011;23691;52.486;4.650;2023-03-14T11:48:56;18.20;;;2.15;;
37851;SDS011;23691;52.486;4.650;2023-03-14T11:51:41;18.25;;;2.45;;
37851;SDS011;23691;52.486;4.650;2023-03-14T11:57:10;21.38;;;2.25;;
37851;SDS011;23691;52.486;4.650;2023-03-14T12:05:48;16.85;;;1.88;;
37851;SDS011;23691;52.486;4.650;2023-03-14T12:13:49;16.55;;;2.00;;
37851;SDS011;23691;52.486;4.650;2023-03-14T12:16:25;21.98;;;2.40;;
37851;SDS011;23691;52.486;4.650;2023-03-14T12:18:55;17.23;;;2.20;;
37851;SDS011;23691;52.486;4.650;2023-03-14T12:21:41;14.98;;;2.10;;
37851;SDS011;23691;52.486;4.650;2023-03-14T12:24:19;25.33;;;2.20;;
37851;SDS011;23691;52.486;4.650;2023-03-14T12:26:57;15.98;;;1.90;;
37851;SDS011;23691;52.486;4.650;2023-03-14T12:29:24;16.20;;;2.42;;
37851;SDS011;23691;52.486;4.650;2023-03-14T12:34:45;17.50;;;2.10;;
37851;SDS011;23691;52.486;4.650;2023-03-14T12:37:16;15.60;;;2.10;;
37851;SDS011;23691;52.486;4.650;2023-03-14T12:50:42;13.90;;;1.90;;
37851;SDS011;23691;52.486;4.650;2023-03-14T12:53:19;14.18;;;1.80;;
37851;SDS011;23691;52.486;4.650;2023-03-14T12:56:18;16.30;;;2.00;;
37851;SDS011;23691;52.486;4.650;2023-03-14T12:58:58;19.75;;;2.17;;
37851;SDS011;23691;52.486;4.650;2023-03-14T13:01:35;19.05;;;2.15;;
37851;SDS011;23691;52.486;4.650;2023-03-14T13:04:07;19.67;;;2.33;;
37851;SDS011;23691;52.486;4.650;2023-03-14T13:06:44;15.50;;;2.20;;
37851;SDS011;23691;52.486;4.650;2023-03-14T13:12:03;11.20;;;1.70;;
37851;SDS011;23691;52.486;4.650;2023-03-14T13:14:34;13.18;;;2.10;;
37851;SDS011;23691;52.486;4.650;2023-03-14T13:17:01;12.82;;;1.73;;
37851;SDS011;23691;52.486;4.650;2023-03-14T13:19:27;14.27;;;2.20;;
37851;SDS011;23691;52.486;4.650;2023-03-14T13:22:02;12.63;;;1.98;;
37851;SDS011;23691;52.486;4.650;2023-03-14T13:24:29;12.07;;;1.73;;
37851;SDS011;23691;52.486;4.650;2023-03-14T13:26:58;16.13;;;1.70;;
37851;SDS011;23691;52.486;4.650;2023-03-14T13:29:26;16.42;;;1.90;;
37851;SDS011;23691;52.486;4.650;2023-03-14T13:31:54;13.80;;;1.90;;
37851;SDS011;23691;52.486;4.650;2023-03-14T13:34:31;11.75;;;1.90;;
37851;SDS011;23691;52.486;4.650;2023-03-14T13:36:58;14.85;;;2.08;;
37851;SDS011;23691;52.486;4.650;2023-03-14T13:39:25;15.45;;;2.20;;
37851;SDS011;23691;52.486;4.650;2023-03-14T13:41:54;17.15;;;2.17;;
37851;SDS011;23691;52.486;4.650;2023-03-14T13:44:31;19.95;;;2.05;;
37851;SDS011;23691;52.486;4.650;2023-03-14T13:46:59;12.05;;;1.98;;
37851;SDS011;23691;52.486;4.650;2023-03-14T13:49:45;14.57;;;1.88;;
37851;SDS011;23691;52.486;4.650;2023-03-14T13:52:28;16.83;;;1.85;;
37851;SDS011;23691;52.486;4.650;2023-03-14T13:55:00;15.75;;;1.77;;
37851;SDS011;23691;52.486;4.650;2023-03-14T13:57:42;15.10;;;1.83;;
37851;SDS011;23691;52.486;4.650;2023-03-14T14:00:25;10.50;;;1.40;;
37851;SDS011;23691;52.486;4.650;2023-03-14T14:02:56;14.50;;;2.10;;
37851;SDS011;23691;52.486;4.650;2023-03-14T14:05:27;15.45;;;1.90;;
37851;SDS011;23691;52.486;4.650;2023-03-14T14:07:55;13.93;;;1.70;;
37851;SDS011;23691;52.486;4.650;2023-03-14T14:10:21;10.52;;;1.85;;
37851;SDS011;23691;52.486;4.650;2023-03-14T14:15:23;9.23;;;1.88;;
37851;SDS011;23691;52.486;4.650;2023-03-14T14:17:52;12.70;;;1.73;;
37851;SDS011;23691;52.486;4.650;2023-03-14T14:20:26;10.95;;;1.65;;
37851;SDS011;23691;52.486;4.650;2023-03-14T14:22:59;12.57;;;2.10;;
37851;SDS011;23691;52.486;4.650;2023-03-14T14:27:53;14.95;;;2.03;;
37851;SDS011;23691;52.486;4.650;2023-03-14T14:32:48;15.80;;;1.83;;
37851;SDS011;23691;52.486;4.650;2023-03-14T14:35:34;19.02;;;2.00;;
37851;SDS011;23691;52.486;4.650;2023-03-14T14:38:00;16.73;;;2.10;;
37851;SDS011;23691;52.486;4.650;2023-03-14T14:40:28;18.17;;;2.00;;
37851;SDS011;23691;52.486;4.650;2023-03-14T14:42:54;16.17;;;2.25;;
37851;SDS011;23691;52.486;4.650;2023-03-14T14:45:26;12.52;;;1.67;;
37851;SDS011;23691;52.486;4.650;2023-03-14T14:48:03;19.35;;;2.00;;
37851;SDS011;23691;52.486;4.650;2023-03-14T14:50:33;15.02;;;1.83;;
37851;SDS011;23691;52.486;4.650;2023-03-14T14:53:02;15.73;;;2.10;;
37851;SDS011;23691;52.486;4.650;2023-03-14T14:55:49;13.57;;;1.85;;
37851;SDS011;23691;52.486;4.650;2023-03-14T14:58:21;13.55;;;1.92;;
37851;SDS011;23691;52.486;4.650;2023-03-14T15:00:51;15.25;;;2.40;;
37851;SDS011;23691;52.486;4.650;2023-03-14T15:03:22;20.80;;;2.70;;
37851;SDS011;23691;52.486;4.650;2023-03-14T15:05:51;17.70;;;2.40;;
37851;SDS011;23691;52.486;4.650;2023-03-14T15:08:20;16.73;;;2.35;;
37851;SDS011;23691;52.486;4.650;2023-03-14T15:10:45;20.85;;;2.47;;
37851;SDS011;23691;52.486;4.650;2023-03-14T15:13:10;16.58;;;2.53;;
37851;SDS011;23691;52.486;4.650;2023-03-14T15:15:36;12.65;;;2.17;;
37851;SDS011;23691;52.486;4.650;2023-03-14T15:18:01;16.40;;;2.15;;
37851;SDS011;23691;52.486;4.650;2023-03-14T15:20:26;18.08;;;2.83;;
37851;SDS011;23691;52.486;4.650;2023-03-14T15:22:52;16.52;;;1.85;;
37851;SDS011;23691;52.486;4.650;2023-03-14T15:25:19;15.55;;;2.05;;
37851;SDS011;23691;52.486;4.650;2023-03-14T15:27:44;15.07;;;2.20;;
37851;SDS011;23691;52.486;4.650;2023-03-14T15:30:10;16.15;;;2.08;;
37851;SDS011;23691;52.486;4.650;2023-03-14T15:32:39;15.90;;;2.45;;
37851;SDS011;23691;52.486;4.650;2023-03-14T15:35:05;14.02;;;2.10;;
37851;SDS011;23691;52.486;4.650;2023-03-14T15:37:31;16.33;;;2.15;;
37851;SDS011;23691;52.486;4.650;2023-03-14T15:39:56;15.05;;;1.83;;
37851;SDS011;23691;52.486;4.650;2023-03-14T15:42:24;12.77;;;2.20;;
37851;SDS011;23691;52.486;4.650;2023-03-14T15:44:50;17.42;;;2.50;;
37851;SDS011;23691;52.486;4.650;2023-03-14T15:47:15;17.35;;;2.10;;
37851;SDS011;23691;52.486;4.650;2023-03-14T15:49:41;16.23;;;2.45;;
37851;SDS011;23691;52.486;4.650;2023-03-14T15:52:06;14.73;;;2.30;;
37851;SDS011;23691;52.486;4.650;2023-03-14T15:54:33;17.85;;;2.15;;
37851;SDS011;23691;52.486;4.650;2023-03-14T15:56:59;12.90;;;2.08;;
37851;SDS011;23691;52.486;4.650;2023-03-14T15:59:24;13.45;;;2.00;;
37851;SDS011;23691;52.486;4.650;2023-03-14T16:01:50;20.55;;;2.22;;
37851;SDS011;23691;52.486;4.650;2023-03-14T16:04:16;14.32;;;2.17;;